sensor_id;sensor_type;location;lat;lon;timestamp;pressure;altitude;pressure_sealevel;temperature;humidity
49841;BME280;35738;49.890;5.930;2022-09-14T00:01:17;94948.16;;;16.38;92.36
49841;BME280;35738;49.890;5.930;2022-09-14T00:04:00;94954.94;;;16.44;92.49
49841;BME280;35738;49.890;5.930;2022-09-14T00:06:28;94959.66;;;16.40;92.49
49841;BME280;35738;49.890;5.930;2022-09-14T00:08:57;94961.66;;;16.43;92.61
49841;BME280;35738;49.890;5.930;2022-09-14T00:11:29;94968.34;;;16.35;94.33
49841;BME280;35738;49.890;5.930;2022-09-14T00:13:59;94971.03;;;16.20;95.54
49841;BME280;35738;49.890;5.930;2022-09-14T00:16:29;94973.25;;;15.97;97.94
49841;BME280;35738;49.890;5.930;2022-09-14T00:18:58;94969.19;;;15.80;100.00
49841;BME280;35738;49.890;5.930;2022-09-14T00:21:27;94964.81;;;15.79;100.00
49841;BME280;35738;49.890;5.930;2022-09-14T00:23:53;94968.78;;;15.78;100.00
49841;BME280;35738;49.890;5.930;2022-09-14T00:26:21;94954.00;;;15.64;100.00
49841;BME280;35738;49.890;5.930;2022-09-14T00:28:50;94953.97;;;15.60;100.00
49841;BME280;35738;49.890;5.930;2022-09-14T00:31:18;94954.69;;;15.57;100.00
49841;BME280;35738;49.890;5.930;2022-09-14T00:33:46;94943.94;;;15.48;100.00
49841;BME280;35738;49.890;5.930;2022-09-14T00:36:19;94945.88;;;15.44;100.00
49841;BME280;35738;49.890;5.930;2022-09-14T00:38:46;94959.03;;;15.54;100.00
49841;BME280;35738;49.890;5.930;2022-09-14T00:41:17;94953.91;;;15.56;100.00
49841;BME280;35738;49.890;5.930;2022-09-14T00:46:51;94961.91;;;15.62;100.00
49841;BME280;35738;49.890;5.930;2022-09-14T00:49:37;94974.00;;;15.87;100.00
49841;BME280;35738;49.890;5.930;2022-09-14T00:54:39;94964.13;;;15.93;100.00
49841;BME280;35738;49.890;5.930;2022-09-14T00:57:07;94957.41;;;15.94;100.00
49841;BME280;35738;49.890;5.930;2022-09-14T00:59:36;94942.31;;;15.92;100.00
49841;BME280;35738;49.890;5.930;2022-09-14T01:02:04;94946.31;;;15.94;100.00
49841;BME280;35738;49.890;5.930;2022-09-14T01:04:32;94938.75;;;15.91;100.00
49841;BME280;35738;49.890;5.930;2022-09-14T01:07:09;94941.84;;;15.79;100.00
49841;BME280;35738;49.890;5.930;2022-09-14T01:18:14;94918.19;;;15.44;100.00
49841;BME280;35738;49.890;5.930;2022-09-14T01:21:15;94918.53;;;15.39;100.00
49841;BME280;35738;49.890;5.930;2022-09-14T01:27:22;94913.09;;;15.53;100.00
49841;BME280;35738;49.890;5.930;2022-09-14T01:29:58;94905.50;;;15.43;100.00
49841;BME280;35738;49.890;5.930;2022-09-14T01:32:32;94906.28;;;15.44;100.00
49841;BME280;35738;49.890;5.930;2022-09-14T01:35:03;94908.31;;;15.47;100.00
49841;BME280;35738;49.890;5.930;2022-09-14T01:37:39;94901.16;;;15.46;100.00
49841;BME280;35738;49.890;5.930;2022-09-14T01:40:08;94907.97;;;15.55;100.00
49841;BME280;35738;49.890;5.930;2022-09-14T01:42:38;94901.00;;;15.69;100.00
49841;BME280;35738;49.890;5.930;2022-09-14T01:45:10;94889.09;;;15.65;100.00
49841;BME280;35738;49.890;5.930;2022-09-14T01:47:50;94892.63;;;15.62;100.00
49841;BME280;35738;49.890;5.930;2022-09-14T01:50:23;94888.34;;;15.75;100.00
49841;BME280;35738;49.890;5.930;2022-09-14T01:52:58;94882.00;;;15.71;100.00
49841;BME280;35738;49.890;5.930;2022-09-14T01:55:30;94881.06;;;15.56;100.00
49841;BME280;35738;49.890;5.930;2022-09-14T01:58:02;94879.47;;;15.55;100.00
49841;BME280;35738;49.890;5.930;2022-09-14T02:00:31;94878.38;;;15.63;100.00
49841;BME280;35738;49.890;5.930;2022-09-14T02:03:04;94883.56;;;15.68;100.00
49841;BME280;35738;49.890;5.930;2022-09-14T02:06:04;94878.03;;;15.72;100.00
49841;BME280;35738;49.890;5.930;2022-09-14T02:08:29;94884.44;;;15.79;100.00
49841;BME280;35738;49.890;5.930;2022-09-14T02:10:57;94869.41;;;15.84;100.00
49841;BME280;35738;49.890;5.930;2022-09-14T02:13:25;94877.38;;;15.93;100.00
49841;BME280;35738;49.890;5.930;2022-09-14T02:15:52;94867.81;;;15.86;100.00
49841;BME280;35738;49.890;5.930;2022-09-14T02:18:19;94879.31;;;15.85;100.00
49841;BME280;35738;49.890;5.930;2022-09-14T02:20:49;94872.53;;;15.79;100.00
49841;BME280;35738;49.890;5.930;2022-09-14T02:23:18;94876.47;;;15.74;100.00
49841;BME280;35738;49.890;5.930;2022-09-14T02:25:45;94871.66;;;15.64;100.00
49841;BME280;35738;49.890;5.930;2022-09-14T02:28:13;94875.56;;;15.60;100.00
49841;BME280;35738;49.890;5.930;2022-09-14T02:36:58;94867.31;;;15.67;100.00
49841;BME280;35738;49.890;5.930;2022-09-14T02:39:34;94858.56;;;15.61;100.00
49841;BME280;35738;49.890;5.930;2022-09-14T02:50:55;94843.84;;;15.57;100.00
49841;BME280;35738;49.890;5.930;2022-09-14T02:53:35;94849.50;;;15.64;100.00
49841;BME280;35738;49.890;5.930;2022-09-14T02:56:06;94838.06;;;15.73;100.00
49841;BME280;35738;49.890;5.930;2022-09-14T02:58:36;94839.69;;;15.81;100.00
49841;BME280;35738;49.890;5.930;2022-09-14T03:01:05;94830.50;;;15.70;100.00
49841;BME280;35738;49.890;5.930;2022-09-14T03:03:32;94829.31;;;15.67;100.00
49841;BME280;35738;49.890;5.930;2022-09-14T03:06:01;94826.84;;;15.58;100.00
49841;BME280;35738;49.890;5.930;2022-09-14T03:08:29;94830.47;;;15.63;100.00
49841;BME280;35738;49.890;5.930;2022-09-14T03:10:56;94824.09;;;15.58;100.00
49841;BME280;35738;49.890;5.930;2022-09-14T03:13:23;94816.94;;;15.57;100.00
49841;BME280;35738;49.890;5.930;2022-09-14T03:15:50;94826.84;;;15.58;100.00
49841;BME280;35738;49.890;5.930;2022-09-14T03:18:17;94820.06;;;15.52;100.00
49841;BME280;35738;49.890;5.930;2022-09-14T03:20:44;94815.25;;;15.42;100.00
49841;BME280;35738;49.890;5.930;2022-09-14T03:23:11;94812.25;;;15.62;100.00
49841;BME280;35738;49.890;5.930;2022-09-14T03:25:40;94820.53;;;15.58;100.00
49841;BME280;35738;49.890;5.930;2022-09-14T03:28:08;94827.16;;;15.50;100.00
49841;BME280;35738;49.890;5.930;2022-09-14T03:30:35;94831.94;;;15.53;100.00
49841;BME280;35738;49.890;5.930;2022-09-14T03:33:02;94830.34;;;15.52;100.00
49841;BME280;35738;49.890;5.930;2022-09-14T03:35:30;94823.34;;;15.62;100.00
49841;BME280;35738;49.890;5.930;2022-09-14T03:37:57;94834.31;;;15.54;100.00
49841;BME280;35738;49.890;5.930;2022-09-14T03:40:25;94836.34;;;15.57;100.00
49841;BME280;35738;49.890;5.930;2022-09-14T03:42:53;94839.19;;;15.65;100.00
49841;BME280;35738;49.890;5.930;2022-09-14T03:45:20;94838.41;;;15.68;100.00
49841;BME280;35738;49.890;5.930;2022-09-14T03:47:47;94832.88;;;15.68;100.00
49841;BME280;35738;49.890;5.930;2022-09-14T03:50:15;94832.47;;;15.66;100.00
49841;BME280;35738;49.890;5.930;2022-09-14T03:52:42;94834.06;;;15.67;100.00
49841;BME280;35738;49.890;5.930;2022-09-14T03:55:09;94827.78;;;15.80;100.00
49841;BME280;35738;49.890;5.930;2022-09-14T03:57:37;94822.63;;;15.79;100.00
49841;BME280;35738;49.890;5.930;2022-09-14T04:00:04;94812.72;;;15.74;100.00
49841;BME280;35738;49.890;5.930;2022-09-14T04:02:32;94805.19;;;15.71;100.00
49841;BME280;35738;49.890;5.930;2022-09-14T04:04:58;94802.38;;;15.68;100.00
49841;BME280;35738;49.890;5.930;2022-09-14T04:07:25;94803.50;;;15.60;100.00
49841;BME280;35738;49.890;5.930;2022-09-14T04:09:52;94814.25;;;15.65;100.00
49841;BME280;35738;49.890;5.930;2022-09-14T04:12:18;94801.91;;;15.58;100.00
49841;BME280;35738;49.890;5.930;2022-09-14T04:14:45;94800.28;;;15.54;100.00
49841;BME280;35738;49.890;5.930;2022-09-14T04:17:11;94793.16;;;15.53;100.00
49841;BME280;35738;49.890;5.930;2022-09-14T04:19:38;94782.81;;;15.46;100.00
49841;BME280;35738;49.890;5.930;2022-09-14T04:22:07;94788.06;;;15.58;100.00
49841;BME280;35738;49.890;5.930;2022-09-14T04:24:34;94780.47;;;15.52;100.00
49841;BME280;35738;49.890;5.930;2022-09-14T04:27:01;94773.81;;;15.60;100.00
49841;BME280;35738;49.890;5.930;2022-09-14T04:29:27;94769.09;;;15.61;100.00
49841;BME280;35738;49.890;5.930;2022-09-14T04:31:56;94763.00;;;15.44;100.00
49841;BME280;35738;49.890;5.930;2022-09-14T04:34:23;94769.50;;;15.63;100.00
49841;BME280;35738;49.890;5.930;2022-09-14T04:36:50;94757.19;;;15.60;100.00
49841;BME280;35738;49.890;5.930;2022-09-14T04:39:16;94766.34;;;15.64;100.00
49841;BME280;35738;49.890;5.930;2022-09-14T04:41:43;94774.28;;;15.73;100.00
49841;BME280;35738;49.890;5.930;2022-09-14T04:44:10;94769.09;;;15.61;100.00
49841;BME280;35738;49.890;5.930;2022-09-14T04:46:37;94770.34;;;15.74;100.00
49841;BME280;35738;49.890;5.930;2022-09-14T04:49:11;94771.16;;;15.81;100.00
49841;BME280;35738;49.890;5.930;2022-09-14T04:51:38;94774.72;;;15.82;100.00
49841;BME280;35738;49.890;5.930;2022-09-14T04:54:05;94775.13;;;15.84;100.00
49841;BME280;35738;49.890;5.930;2022-09-14T04:56:34;94784.66;;;15.90;100.00
49841;BME280;35738;49.890;5.930;2022-09-14T04:59:02;94779.91;;;15.91;100.00
49841;BME280;35738;49.890;5.930;2022-09-14T05:01:40;94784.66;;;15.90;100.00
49841;BME280;35738;49.890;5.930;2022-09-14T05:04:08;94783.06;;;15.89;100.00
49841;BME280;35738;49.890;5.930;2022-09-14T05:06:36;94791.81;;;15.91;100.00
49841;BME280;35738;49.890;5.930;2022-09-14T05:09:06;94792.59;;;15.92;100.00
49841;BME280;35738;49.890;5.930;2022-09-14T05:11:34;94792.59;;;15.92;100.00
49841;BME280;35738;49.890;5.930;2022-09-14T05:14:02;94799.72;;;15.89;100.00
49841;BME280;35738;49.890;5.930;2022-09-14T05:16:34;94796.56;;;15.91;100.00
49841;BME280;35738;49.890;5.930;2022-09-14T05:19:03;94801.31;;;15.90;100.00
49841;BME280;35738;49.890;5.930;2022-09-14T05:21:32;94788.63;;;15.89;100.00
49841;BME280;35738;49.890;5.930;2022-09-14T05:24:01;94794.56;;;15.87;100.00
49841;BME280;35738;49.890;5.930;2022-09-14T05:26:29;94794.16;;;15.85;100.00
49841;BME280;35738;49.890;5.930;2022-09-14T05:28:59;94802.88;;;15.84;100.00
49841;BME280;35738;49.890;5.930;2022-09-14T05:31:27;94804.03;;;15.83;100.00
49841;BME280;35738;49.890;5.930;2022-09-14T05:33:54;94794.53;;;15.84;100.00
49841;BME280;35738;49.890;5.930;2022-09-14T05:36:21;94791.00;;;15.87;100.00
49841;BME280;35738;49.890;5.930;2022-09-14T05:38:48;94784.66;;;15.86;100.00
49841;BME280;35738;49.890;5.930;2022-09-14T05:41:15;94787.44;;;15.86;100.00
49841;BME280;35738;49.890;5.930;2022-09-14T05:43:43;94772.38;;;15.91;100.00
49841;BME280;35738;49.890;5.930;2022-09-14T05:46:12;94776.75;;;15.88;100.00
49841;BME280;35738;49.890;5.930;2022-09-14T05:48:39;94775.97;;;15.92;100.00
49841;BME280;35738;49.890;5.930;2022-09-14T05:51:15;94773.59;;;15.94;100.00
49841;BME280;35738;49.890;5.930;2022-09-14T05:53:46;94768.44;;;15.92;100.00
49841;BME280;35738;49.890;5.930;2022-09-14T05:56:13;94779.16;;;15.97;100.00
49841;BME280;35738;49.890;5.930;2022-09-14T05:58:40;94779.16;;;15.97;100.00
49841;BME280;35738;49.890;5.930;2022-09-14T06:01:23;94777.19;;;16.01;100.00
49841;BME280;35738;49.890;5.930;2022-09-14T06:03:55;94776.38;;;16.01;100.00
49841;BME280;35738;49.890;5.930;2022-09-14T06:06:22;94776.00;;;16.02;100.00
49841;BME280;35738;49.890;5.930;2022-09-14T06:08:50;94776.38;;;15.97;100.00
49841;BME280;35738;49.890;5.930;2022-09-14T06:11:23;94768.09;;;16.04;100.00
49841;BME280;35738;49.890;5.930;2022-09-14T06:13:54;94779.56;;;16.03;100.00
49841;BME280;35738;49.890;5.930;2022-09-14T06:16:22;94778.78;;;16.02;100.00
49841;BME280;35738;49.890;5.930;2022-09-14T06:18:49;94781.16;;;16.07;100.00
49841;BME280;35738;49.890;5.930;2022-09-14T06:21:18;94780.38;;;16.10;100.00
49841;BME280;35738;49.890;5.930;2022-09-14T06:23:46;94782.78;;;16.15;100.00
49841;BME280;35738;49.890;5.930;2022-09-14T06:26:14;94774.44;;;16.12;100.00
49841;BME280;35738;49.890;5.930;2022-09-14T06:28:41;94771.69;;;16.19;100.00
49841;BME280;35738;49.890;5.930;2022-09-14T06:31:11;94766.94;;;16.19;100.00
49841;BME280;35738;49.890;5.930;2022-09-14T06:33:42;94785.19;;;16.28;100.00
49841;BME280;35738;49.890;5.930;2022-09-14T06:36:13;94782.41;;;16.31;100.00
49841;BME280;35738;49.890;5.930;2022-09-14T06:38:40;94789.56;;;16.32;100.00
49841;BME280;35738;49.890;5.930;2022-09-14T06:41:09;94787.97;;;16.35;100.00
49841;BME280;35738;49.890;5.930;2022-09-14T06:43:39;94793.50;;;16.31;100.00
49841;BME280;35738;49.890;5.930;2022-09-14T06:46:14;94784.81;;;16.33;100.00
49841;BME280;35738;49.890;5.930;2022-09-14T06:48:48;94781.69;;;16.41;100.00
49841;BME280;35738;49.890;5.930;2022-09-14T06:51:30;94786.44;;;16.48;100.00
49841;BME280;35738;49.890;5.930;2022-09-14T06:53:58;94793.97;;;16.40;100.00
49841;BME280;35738;49.890;5.930;2022-09-14T06:56:27;94795.50;;;16.34;100.00
49841;BME280;35738;49.890;5.930;2022-09-14T06:58:54;94791.19;;;16.47;100.00
49841;BME280;35738;49.890;5.930;2022-09-14T07:01:21;94784.84;;;16.43;100.00
49841;BME280;35738;49.890;5.930;2022-09-14T07:03:48;94777.34;;;16.62;100.00
49841;BME280;35738;49.890;5.930;2022-09-14T07:06:20;94779.38;;;16.72;100.00
49841;BME280;35738;49.890;5.930;2022-09-14T07:08:49;94776.19;;;16.88;100.00
49841;BME280;35738;49.890;5.930;2022-09-14T07:11:18;94768.25;;;17.00;100.00
49841;BME280;35738;49.890;5.930;2022-09-14T07:13:46;94757.16;;;17.00;100.00
49841;BME280;35738;49.890;5.930;2022-09-14T07:16:13;94760.72;;;17.04;100.00
49841;BME280;35738;49.890;5.930;2022-09-14T07:18:40;94767.06;;;17.01;100.00
49841;BME280;35738;49.890;5.930;2022-09-14T07:21:15;94768.25;;;17.04;100.00
49841;BME280;35738;49.890;5.930;2022-09-14T07:23:43;94772.63;;;16.98;100.00
49841;BME280;35738;49.890;5.930;2022-09-14T07:28:41;94768.25;;;16.86;100.00
49841;BME280;35738;49.890;5.930;2022-09-14T07:31:19;94771.03;;;16.90;100.00
49841;BME280;35738;49.890;5.930;2022-09-14T07:33:47;94773.41;;;16.91;100.00
49841;BME280;35738;49.890;5.930;2022-09-14T07:36:14;94781.75;;;16.95;100.00
49841;BME280;35738;49.890;5.930;2022-09-14T07:38:41;94785.72;;;16.90;100.00
49841;BME280;35738;49.890;5.930;2022-09-14T07:41:26;94775.81;;;16.93;100.00
49841;BME280;35738;49.890;5.930;2022-09-14T07:43:55;94774.22;;;17.06;100.00
49841;BME280;35738;49.890;5.930;2022-09-14T07:46:22;94777.81;;;17.17;100.00
49841;BME280;35738;49.890;5.930;2022-09-14T07:48:57;94770.66;;;17.27;100.00
49841;BME280;35738;49.890;5.930;2022-09-14T07:51:25;94777.00;;;17.27;100.00
49841;BME280;35738;49.890;5.930;2022-09-14T07:53:52;94787.72;;;17.32;100.00
49841;BME280;35738;49.890;5.930;2022-09-14T07:56:19;94794.44;;;17.35;100.00
49841;BME280;35738;49.890;5.930;2022-09-14T07:58:47;94794.06;;;17.26;100.00
49841;BME280;35738;49.890;5.930;2022-09-14T08:01:19;94794.88;;;17.23;100.00
49841;BME280;35738;49.890;5.930;2022-09-14T08:03:47;94802.00;;;17.06;100.00
49841;BME280;35738;49.890;5.930;2022-09-14T08:06:19;94800.41;;;16.98;100.00
49841;BME280;35738;49.890;5.930;2022-09-14T08:08:49;94794.88;;;17.15;100.00
49841;BME280;35738;49.890;5.930;2022-09-14T08:11:17;94778.19;;;17.23;100.00
49841;BME280;35738;49.890;5.930;2022-09-14T08:13:51;94777.41;;;17.22;100.00
49841;BME280;35738;49.890;5.930;2022-09-14T08:16:19;94780.13;;;17.47;100.00
49841;BME280;35738;49.890;5.930;2022-09-14T08:18:46;94786.06;;;17.74;100.00
49841;BME280;35738;49.890;5.930;2022-09-14T08:21:15;94784.03;;;17.82;100.00
49841;BME280;35738;49.890;5.930;2022-09-14T08:23:43;94785.63;;;17.83;100.00
49841;BME280;35738;49.890;5.930;2022-09-14T08:26:12;94798.75;;;17.89;100.00
49841;BME280;35738;49.890;5.930;2022-09-14T08:28:40;94786.81;;;17.92;100.00
49841;BME280;35738;49.890;5.930;2022-09-14T08:31:11;94791.59;;;17.88;100.00
49841;BME280;35738;49.890;5.930;2022-09-14T08:33:42;94787.97;;;17.98;100.00
49841;BME280;35738;49.890;5.930;2022-09-14T08:36:11;94794.38;;;17.88;100.00
49841;BME280;35738;49.890;5.930;2022-09-14T08:38:38;94793.13;;;18.00;100.00
49841;BME280;35738;49.890;5.930;2022-09-14T08:41:20;94801.03;;;18.16;100.00
49841;BME280;35738;49.890;5.930;2022-09-14T08:43:50;94810.19;;;18.13;100.00
49841;BME280;35738;49.890;5.930;2022-09-14T08:46:34;94824.44;;;18.25;100.00
49841;BME280;35738;49.890;5.930;2022-09-14T08:49:04;94832.38;;;18.27;100.00
49841;BME280;35738;49.890;5.930;2022-09-14T08:51:36;94833.94;;;18.35;100.00
49841;BME280;35738;49.890;5.930;2022-09-14T08:54:02;94824.00;;;18.34;100.00
49841;BME280;35738;49.890;5.930;2022-09-14T08:56:32;94836.28;;;18.40;100.00
49841;BME280;35738;49.890;5.930;2022-09-14T08:59:12;94833.84;;;18.63;100.00
49841;BME280;35738;49.890;5.930;2022-09-14T09:09:56;94837.69;;;18.87;100.00
49841;BME280;35738;49.890;5.930;2022-09-14T09:12:56;94833.84;;;18.53;100.00
49841;BME280;35738;49.890;5.930;2022-09-14T09:15:30;94830.72;;;18.43;100.00
49841;BME280;35738;49.890;5.930;2022-09-14T09:18:06;94830.47;;;18.06;100.00
49841;BME280;35738;49.890;5.930;2022-09-14T09:20:41;94829.59;;;18.27;100.00
49841;BME280;35738;49.890;5.930;2022-09-14T09:23:13;94826.78;;;18.34;100.00
49841;BME280;35738;49.890;5.930;2022-09-14T09:28:27;94834.63;;;18.53;100.00
49841;BME280;35738;49.890;5.930;2022-09-14T09:30:57;94830.28;;;18.63;100.00
49841;BME280;35738;49.890;5.930;2022-09-14T09:33:26;94832.19;;;18.73;100.00
49841;BME280;35738;49.890;5.930;2022-09-14T09:35:54;94816.72;;;18.68;100.00
49841;BME280;35738;49.890;5.930;2022-09-14T09:38:24;94814.75;;;18.58;100.00
49841;BME280;35738;49.890;5.930;2022-09-14T09:44:02;94808.69;;;18.78;100.00
49841;BME280;35738;49.890;5.930;2022-09-14T09:46:34;94809.41;;;18.89;100.00
49841;BME280;35738;49.890;5.930;2022-09-14T09:49:15;94809.47;;;18.82;100.00
49841;BME280;35738;49.890;5.930;2022-09-14T09:51:42;94798.53;;;19.05;100.00
49841;BME280;35738;49.890;5.930;2022-09-14T09:57:00;94803.31;;;19.04;100.00
49841;BME280;35738;49.890;5.930;2022-09-14T09:59:39;94796.22;;;18.96;100.00
49841;BME280;35738;49.890;5.930;2022-09-14T10:02:27;94793.88;;;18.91;100.00
49841;BME280;35738;49.890;5.930;2022-09-14T10:07:25;94794.16;;;19.04;100.00
49841;BME280;35738;49.890;5.930;2022-09-14T10:12:24;94777.53;;;19.42;100.00
49841;BME280;35738;49.890;5.930;2022-09-14T10:17:33;94772.41;;;19.36;100.00
49841;BME280;35738;49.890;5.930;2022-09-14T10:20:00;94768.00;;;19.39;100.00
49841;BME280;35738;49.890;5.930;2022-09-14T10:22:31;94759.94;;;19.48;100.00
49841;BME280;35738;49.890;5.930;2022-09-14T10:25:19;94758.88;;;19.76;100.00
49841;BME280;35738;49.890;5.930;2022-09-14T10:27:57;94754.53;;;20.09;100.00
49841;BME280;35738;49.890;5.930;2022-09-14T10:30:30;94760.28;;;20.25;100.00
49841;BME280;35738;49.890;5.930;2022-09-14T10:33:02;94761.41;;;20.31;99.97
49841;BME280;35738;49.890;5.930;2022-09-14T11:00:48;94694.81;;;19.99;94.46
49841;BME280;35738;49.890;5.930;2022-09-14T11:06:22;94704.03;;;20.27;96.09
49841;BME280;35738;49.890;5.930;2022-09-14T11:09:05;94709.72;;;20.20;95.54
49841;BME280;35738;49.890;5.930;2022-09-14T11:14:13;94694.19;;;20.73;95.60
49841;BME280;35738;49.890;5.930;2022-09-14T11:25:03;94681.28;;;20.55;91.14
49841;BME280;35738;49.890;5.930;2022-09-14T11:27:37;94685.41;;;20.47;89.88
49841;BME280;35738;49.890;5.930;2022-09-14T11:30:14;94690.81;;;20.31;91.13
49841;BME280;35738;49.890;5.930;2022-09-14T11:32:47;94682.94;;;20.53;94.08
49841;BME280;35738;49.890;5.930;2022-09-14T11:35:22;94686.03;;;20.58;92.69
49841;BME280;35738;49.890;5.930;2022-09-14T11:38:07;94689.56;;;20.36;90.72
49841;BME280;35738;49.890;5.930;2022-09-14T11:40:42;94689.47;;;20.43;91.53
49841;BME280;35738;49.890;5.930;2022-09-14T11:43:14;94696.44;;;20.27;91.03
49841;BME280;35738;49.890;5.930;2022-09-14T11:46:18;94696.75;;;20.33;91.73
49841;BME280;35738;49.890;5.930;2022-09-14T11:48:53;94696.44;;;20.27;90.37
49841;BME280;35738;49.890;5.930;2022-09-14T11:51:28;94695.00;;;20.16;89.73
49841;BME280;35738;49.890;5.930;2022-09-14T11:53:57;94688.22;;;20.17;89.35
49841;BME280;35738;49.890;5.930;2022-09-14T11:56:29;94693.50;;;20.38;91.35
49841;BME280;35738;49.890;5.930;2022-09-14T11:58:59;94701.63;;;20.29;90.43
49841;BME280;35738;49.890;5.930;2022-09-14T12:01:31;94706.31;;;20.36;90.56
49841;BME280;35738;49.890;5.930;2022-09-14T12:04:13;94707.09;;;20.36;90.77
49841;BME280;35738;49.890;5.930;2022-09-14T12:06:48;94703.88;;;20.38;89.63
49841;BME280;35738;49.890;5.930;2022-09-14T12:11:43;94717.06;;;20.37;90.64
49841;BME280;35738;49.890;5.930;2022-09-14T12:17:13;94716.00;;;20.27;91.07
49841;BME280;35738;49.890;5.930;2022-09-14T12:20:25;94718.94;;;20.17;91.58
49841;BME280;35738;49.890;5.930;2022-09-14T12:23:22;94728.63;;;20.05;91.75
49841;BME280;35738;49.890;5.930;2022-09-14T12:36:03;94701.63;;;20.29;90.69
49841;BME280;35738;49.890;5.930;2022-09-14T12:56:36;94650.19;;;21.47;80.37
49841;BME280;35738;49.890;5.930;2022-09-14T13:04:32;94632.47;;;21.10;80.88
49841;BME280;35738;49.890;5.930;2022-09-14T13:07:03;94631.91;;;20.99;81.19
49841;BME280;35738;49.890;5.930;2022-09-14T13:09:31;94633.38;;;20.80;82.47
49841;BME280;35738;49.890;5.930;2022-09-14T13:14:28;94633.81;;;20.79;83.99
49841;BME280;35738;49.890;5.930;2022-09-14T13:16:58;94644.25;;;20.75;85.43
49841;BME280;35738;49.890;5.930;2022-09-14T13:19:29;94639.53;;;20.72;85.85
49841;BME280;35738;49.890;5.930;2022-09-14T13:21:58;94633.81;;;20.55;85.90
49841;BME280;35738;49.890;5.930;2022-09-14T13:24:34;94630.16;;;20.58;87.38
49841;BME280;35738;49.890;5.930;2022-09-14T13:27:02;94626.22;;;20.56;88.21
49841;BME280;35738;49.890;5.930;2022-09-14T13:29:29;94637.41;;;20.29;85.62
49841;BME280;35738;49.890;5.930;2022-09-14T13:31:57;94648.47;;;20.06;86.06
49841;BME280;35738;49.890;5.930;2022-09-14T13:34:43;94646.44;;;19.79;85.45
49841;BME280;35738;49.890;5.930;2022-09-14T13:37:12;94654.13;;;19.72;88.83
49841;BME280;35738;49.890;5.930;2022-09-14T13:39:39;94651.25;;;19.79;89.90
49841;BME280;35738;49.890;5.930;2022-09-14T13:42:08;94651.28;;;19.75;90.94
49841;BME280;35738;49.890;5.930;2022-09-14T13:44:38;94657.50;;;19.86;91.18
49841;BME280;35738;49.890;5.930;2022-09-14T13:47:13;94642.16;;;20.02;89.58
49841;BME280;35738;49.890;5.930;2022-09-14T13:49:41;94648.97;;;20.27;89.52
49841;BME280;35738;49.890;5.930;2022-09-14T13:55:06;94646.19;;;20.54;89.48
49841;BME280;35738;49.890;5.930;2022-09-14T13:57:34;94642.84;;;20.90;87.23
49841;BME280;35738;49.890;5.930;2022-09-14T14:02:46;94660.53;;;21.50;83.38
49841;BME280;35738;49.890;5.930;2022-09-14T14:05:28;94660.88;;;21.52;81.51
49841;BME280;35738;49.890;5.930;2022-09-14T14:07:57;94664.22;;;21.00;85.62
49841;BME280;35738;49.890;5.930;2022-09-14T14:10:34;94673.50;;;21.40;84.22
49841;BME280;35738;49.890;5.930;2022-09-14T14:13:02;94675.47;;;21.63;83.10
49841;BME280;35738;49.890;5.930;2022-09-14T14:15:42;94667.78;;;21.87;82.88
49841;BME280;35738;49.890;5.930;2022-09-14T14:21:11;94727.94;;;19.63;85.55
49841;BME280;35738;49.890;5.930;2022-09-14T14:23:38;94750.50;;;18.21;91.37
49841;BME280;35738;49.890;5.930;2022-09-14T14:26:26;94736.13;;;17.03;94.06
49841;BME280;35738;49.890;5.930;2022-09-14T14:28:53;94726.63;;;16.75;96.92
49841;BME280;35738;49.890;5.930;2022-09-14T14:31:21;94719.88;;;16.69;100.00
49841;BME280;35738;49.890;5.930;2022-09-14T14:33:51;94719.06;;;16.76;98.87
49841;BME280;35738;49.890;5.930;2022-09-14T14:36:18;94707.59;;;16.67;97.03
49841;BME280;35738;49.890;5.930;2022-09-14T14:38:45;94707.56;;;16.56;96.73
49841;BME280;35738;49.890;5.930;2022-09-14T14:41:15;94707.59;;;16.70;98.41
49841;BME280;35738;49.890;5.930;2022-09-14T14:43:47;94703.97;;;16.41;97.38
49841;BME280;35738;49.890;5.930;2022-09-14T14:46:16;94711.13;;;16.39;100.00
49841;BME280;35738;49.890;5.930;2022-09-14T14:48:43;94707.09;;;16.29;100.00
49841;BME280;35738;49.890;5.930;2022-09-14T14:51:13;94705.47;;;16.03;100.00
49841;BME280;35738;49.890;5.930;2022-09-14T14:53:41;94705.00;;;15.69;100.00
49841;BME280;35738;49.890;5.930;2022-09-14T14:56:12;94703.78;;;15.67;100.00
49841;BME280;35738;49.890;5.930;2022-09-14T14:58:45;94695.09;;;15.68;100.00
49841;BME280;35738;49.890;5.930;2022-09-14T15:01:12;94680.81;;;15.63;100.00
49841;BME280;35738;49.890;5.930;2022-09-14T15:03:39;94679.22;;;15.62;100.00
49841;BME280;35738;49.890;5.930;2022-09-14T15:06:20;94669.75;;;15.66;100.00
49841;BME280;35738;49.890;5.930;2022-09-14T15:08:55;94668.97;;;15.76;100.00
49841;BME280;35738;49.890;5.930;2022-09-14T15:11:22;94667.38;;;15.72;100.00
49841;BME280;35738;49.890;5.930;2022-09-14T15:13:49;94667.34;;;15.65;100.00
49841;BME280;35738;49.890;5.930;2022-09-14T15:16:16;94663.81;;;15.71;100.00
49841;BME280;35738;49.890;5.930;2022-09-14T15:18:43;94656.69;;;15.70;100.00
49841;BME280;35738;49.890;5.930;2022-09-14T15:21:10;94647.97;;;15.75;100.00
49841;BME280;35738;49.890;5.930;2022-09-14T15:23:37;94634.88;;;15.62;100.00
49841;BME280;35738;49.890;5.930;2022-09-14T15:26:04;94640.75;;;15.56;100.00
49841;BME280;35738;49.890;5.930;2022-09-14T15:28:31;94651.00;;;15.45;100.00
49841;BME280;35738;49.890;5.930;2022-09-14T15:31:01;94658.94;;;15.50;100.00
49841;BME280;35738;49.890;5.930;2022-09-14T15:33:32;94665.66;;;15.46;100.00
49841;BME280;35738;49.890;5.930;2022-09-14T15:35:59;94667.19;;;15.36;100.00
49841;BME280;35738;49.890;5.930;2022-09-14T15:38:26;94668.75;;;15.34;100.00
49841;BME280;35738;49.890;5.930;2022-09-14T15:40:53;94667.94;;;15.22;100.00